sensor_id;sensor_type;location;lat;lon;timestamp;temperature;humidity
70550;DHT22;58101;48.658;2.328;2023-03-12T00:00:40;8.50;99.90
70550;DHT22;58101;48.658;2.328;2023-03-12T00:03:06;8.60;99.90
70550;DHT22;58101;48.658;2.328;2023-03-12T00:05:32;8.50;99.90
70550;DHT22;58101;48.658;2.328;2023-03-12T00:07:58;8.60;99.90
70550;DHT22;58101;48.658;2.328;2023-03-12T00:10:27;8.60;99.90
70550;DHT22;58101;48.658;2.328;2023-03-12T00:12:53;8.60;99.90
70550;DHT22;58101;48.658;2.328;2023-03-12T00:15:19;8.70;99.90
70550;DHT22;58101;48.658;2.328;2023-03-12T00:17:45;8.70;99.90
70550;DHT22;58101;48.658;2.328;2023-03-12T00:20:10;8.70;99.90
70550;DHT22;58101;48.658;2.328;2023-03-12T00:22:37;8.70;99.90
70550;DHT22;58101;48.658;2.328;2023-03-12T00:25:04;8.80;99.90
70550;DHT22;58101;48.658;2.328;2023-03-12T00:27:30;8.70;99.90
70550;DHT22;58101;48.658;2.328;2023-03-12T00:29:56;8.80;99.90
70550;DHT22;58101;48.658;2.328;2023-03-12T00:32:21;8.70;99.90
70550;DHT22;58101;48.658;2.328;2023-03-12T00:34:51;9.00;99.90
70550;DHT22;58101;48.658;2.328;2023-03-12T00:37:17;8.90;99.90
70550;DHT22;58101;48.658;2.328;2023-03-12T00:39:42;8.80;99.90
70550;DHT22;58101;48.658;2.328;2023-03-12T00:42:08;8.70;99.90
70550;DHT22;58101;48.658;2.328;2023-03-12T00:44:34;8.90;99.90
70550;DHT22;58101;48.658;2.328;2023-03-12T00:46:59;8.90;99.90
70550;DHT22;58101;48.658;2.328;2023-03-12T00:49:25;8.90;99.90
70550;DHT22;58101;48.658;2.328;2023-03-12T00:51:51;8.80;99.90
70550;DHT22;58101;48.658;2.328;2023-03-12T00:54:16;8.90;99.90
70550;DHT22;58101;48.658;2.328;2023-03-12T00:56:42;8.90;99.90
70550;DHT22;58101;48.658;2.328;2023-03-12T00:59:07;8.90;99.90
70550;DHT22;58101;48.658;2.328;2023-03-12T01:01:33;8.90;99.90
70550;DHT22;58101;48.658;2.328;2023-03-12T01:03:59;8.90;99.90
70550;DHT22;58101;48.658;2.328;2023-03-12T01:06:25;8.90;99.90
70550;DHT22;58101;48.658;2.328;2023-03-12T01:08:50;9.00;99.90
70550;DHT22;58101;48.658;2.328;2023-03-12T01:11:18;8.90;99.90
70550;DHT22;58101;48.658;2.328;2023-03-12T01:13:45;9.00;99.90
70550;DHT22;58101;48.658;2.328;2023-03-12T01:16:10;9.00;99.90
70550;DHT22;58101;48.658;2.328;2023-03-12T01:18:36;9.00;99.90
70550;DHT22;58101;48.658;2.328;2023-03-12T01:21:02;9.10;99.90
70550;DHT22;58101;48.658;2.328;2023-03-12T01:23:28;9.00;99.90
70550;DHT22;58101;48.658;2.328;2023-03-12T01:25:54;9.00;99.90
70550;DHT22;58101;48.658;2.328;2023-03-12T01:28:22;9.00;99.90
70550;DHT22;58101;48.658;2.328;2023-03-12T01:30:47;9.10;99.90
70550;DHT22;58101;48.658;2.328;2023-03-12T01:33:13;9.10;99.90
70550;DHT22;58101;48.658;2.328;2023-03-12T01:35:40;9.10;99.90
70550;DHT22;58101;48.658;2.328;2023-03-12T01:38:06;9.10;99.90
70550;DHT22;58101;48.658;2.328;2023-03-12T01:40:34;9.10;99.90
70550;DHT22;58101;48.658;2.328;2023-03-12T01:48:46;9.20;99.90
70550;DHT22;58101;48.658;2.328;2023-03-12T01:51:14;9.20;99.90
70550;DHT22;58101;48.658;2.328;2023-03-12T01:53:43;9.20;99.90
70550;DHT22;58101;48.658;2.328;2023-03-12T01:56:09;9.20;99.90
70550;DHT22;58101;48.658;2.328;2023-03-12T01:58:37;9.20;99.90
70550;DHT22;58101;48.658;2.328;2023-03-12T02:01:04;9.10;99.90
70550;DHT22;58101;48.658;2.328;2023-03-12T02:03:31;9.10;99.90
70550;DHT22;58101;48.658;2.328;2023-03-12T02:06:01;9.10;99.90
70550;DHT22;58101;48.658;2.328;2023-03-12T02:08:28;9.00;99.90
70550;DHT22;58101;48.658;2.328;2023-03-12T02:10:54;9.00;99.90
70550;DHT22;58101;48.658;2.328;2023-03-12T02:13:20;9.00;99.90
70550;DHT22;58101;48.658;2.328;2023-03-12T02:15:46;8.90;99.90
70550;DHT22;58101;48.658;2.328;2023-03-12T02:18:17;8.90;99.90
70550;DHT22;58101;48.658;2.328;2023-03-12T02:26:09;8.80;99.90
70550;DHT22;58101;48.658;2.328;2023-03-12T02:28:36;8.80;99.90
70550;DHT22;58101;48.658;2.328;2023-03-12T02:31:10;8.80;99.90
70550;DHT22;58101;48.658;2.328;2023-03-12T02:33:37;8.80;99.90
70550;DHT22;58101;48.658;2.328;2023-03-12T02:36:03;8.80;99.90
70550;DHT22;58101;48.658;2.328;2023-03-12T02:38:42;8.80;99.90
70550;DHT22;58101;48.658;2.328;2023-03-12T02:41:13;8.80;99.90
70550;DHT22;58101;48.658;2.328;2023-03-12T02:43:48;8.70;99.90
70550;DHT22;58101;48.658;2.328;2023-03-12T02:46:14;8.70;99.90
70550;DHT22;58101;48.658;2.328;2023-03-12T02:48:40;8.70;99.90
70550;DHT22;58101;48.658;2.328;2023-03-12T02:51:06;8.70;99.90
70550;DHT22;58101;48.658;2.328;2023-03-12T02:53:32;8.80;99.90
70550;DHT22;58101;48.658;2.328;2023-03-12T02:55:57;8.80;99.90
70550;DHT22;58101;48.658;2.328;2023-03-12T02:58:23;8.90;99.90
70550;DHT22;58101;48.658;2.328;2023-03-12T03:00:49;8.70;99.90
70550;DHT22;58101;48.658;2.328;2023-03-12T03:03:15;8.70;99.90
70550;DHT22;58101;48.658;2.328;2023-03-12T03:05:40;8.70;99.90
70550;DHT22;58101;48.658;2.328;2023-03-12T03:08:06;8.70;99.90
70550;DHT22;58101;48.658;2.328;2023-03-12T03:10:32;8.70;99.90
70550;DHT22;58101;48.658;2.328;2023-03-12T03:12:58;8.80;99.90
70550;DHT22;58101;48.658;2.328;2023-03-12T03:15:24;8.80;99.90
70550;DHT22;58101;48.658;2.328;2023-03-12T03:17:49;8.80;99.90
70550;DHT22;58101;48.658;2.328;2023-03-12T03:20:15;8.80;99.90
70550;DHT22;58101;48.658;2.328;2023-03-12T03:22:41;8.80;99.90
70550;DHT22;58101;48.658;2.328;2023-03-12T03:25:09;8.80;99.90
70550;DHT22;58101;48.658;2.328;2023-03-12T03:27:35;8.80;99.90
70550;DHT22;58101;48.658;2.328;2023-03-12T03:30:01;8.80;99.90
70550;DHT22;58101;48.658;2.328;2023-03-12T03:32:27;8.70;99.90
70550;DHT22;58101;48.658;2.328;2023-03-12T03:34:53;8.70;99.90
70550;DHT22;58101;48.658;2.328;2023-03-12T03:37:18;8.70;99.90
70550;DHT22;58101;48.658;2.328;2023-03-12T03:39:44;8.70;99.90
70550;DHT22;58101;48.658;2.328;2023-03-12T03:42:10;8.70;99.90
70550;DHT22;58101;48.658;2.328;2023-03-12T03:44:35;8.70;99.90
70550;DHT22;58101;48.658;2.328;2023-03-12T03:47:01;8.70;99.90
70550;DHT22;58101;48.658;2.328;2023-03-12T03:49:26;8.70;99.90
70550;DHT22;58101;48.658;2.328;2023-03-12T03:51:52;8.60;99.90
70550;DHT22;58101;48.658;2.328;2023-03-12T03:54:18;8.60;99.90
70550;DHT22;58101;48.658;2.328;2023-03-12T03:56:44;8.60;99.90
70550;DHT22;58101;48.658;2.328;2023-03-12T03:59:10;8.60;99.90
70550;DHT22;58101;48.658;2.328;2023-03-12T04:01:36;8.60;99.90
70550;DHT22;58101;48.658;2.328;2023-03-12T04:04:02;8.50;99.90
70550;DHT22;58101;48.658;2.328;2023-03-12T04:06:29;8.50;99.90
70550;DHT22;58101;48.658;2.328;2023-03-12T04:08:56;8.50;99.90
70550;DHT22;58101;48.658;2.328;2023-03-12T04:11:22;8.50;99.90
70550;DHT22;58101;48.658;2.328;2023-03-12T04:13:48;8.50;99.90
70550;DHT22;58101;48.658;2.328;2023-03-12T04:16:15;8.50;99.90
70550;DHT22;58101;48.658;2.328;2023-03-12T04:18:42;8.60;99.90
70550;DHT22;58101;48.658;2.328;2023-03-12T04:21:09;8.50;99.90
70550;DHT22;58101;48.658;2.328;2023-03-12T04:23:36;8.40;99.90
70550;DHT22;58101;48.658;2.328;2023-03-12T04:26:02;8.50;99.90
70550;DHT22;58101;48.658;2.328;2023-03-12T04:28:28;8.40;99.90
70550;DHT22;58101;48.658;2.328;2023-03-12T04:30:59;8.50;99.90
70550;DHT22;58101;48.658;2.328;2023-03-12T04:33:31;8.40;99.90
70550;DHT22;58101;48.658;2.328;2023-03-12T04:35:57;8.40;99.90
70550;DHT22;58101;48.658;2.328;2023-03-12T04:38:24;8.40;99.90
70550;DHT22;58101;48.658;2.328;2023-03-12T04:41:02;8.40;99.90
70550;DHT22;58101;48.658;2.328;2023-03-12T04:43:29;8.50;99.90
70550;DHT22;58101;48.658;2.328;2023-03-12T04:45:55;8.50;99.90
70550;DHT22;58101;48.658;2.328;2023-03-12T04:48:22;8.60;99.90
70550;DHT22;58101;48.658;2.328;2023-03-12T04:50:48;8.50;99.90
70550;DHT22;58101;48.658;2.328;2023-03-12T04:53:14;8.50;99.90
70550;DHT22;58101;48.658;2.328;2023-03-12T04:55:40;8.50;99.90
70550;DHT22;58101;48.658;2.328;2023-03-12T04:58:05;8.50;99.90
70550;DHT22;58101;48.658;2.328;2023-03-12T05:00:31;8.50;99.90
70550;DHT22;58101;48.658;2.328;2023-03-12T05:02:57;8.50;99.90
70550;DHT22;58101;48.658;2.328;2023-03-12T05:05:22;8.50;99.90
70550;DHT22;58101;48.658;2.328;2023-03-12T05:07:48;8.50;99.90
70550;DHT22;58101;48.658;2.328;2023-03-12T05:10:13;8.50;99.90
70550;DHT22;58101;48.658;2.328;2023-03-12T05:12:39;8.50;99.90
70550;DHT22;58101;48.658;2.328;2023-03-12T05:15:05;8.50;99.90
70550;DHT22;58101;48.658;2.328;2023-03-12T05:17:31;8.50;99.90
70550;DHT22;58101;48.658;2.328;2023-03-12T05:19:57;8.50;99.90
70550;DHT22;58101;48.658;2.328;2023-03-12T05:22:22;8.50;99.90
70550;DHT22;58101;48.658;2.328;2023-03-12T05:24:48;8.60;99.90
70550;DHT22;58101;48.658;2.328;2023-03-12T05:27:13;8.50;99.90
70550;DHT22;58101;48.658;2.328;2023-03-12T05:29:39;8.60;99.90
70550;DHT22;58101;48.658;2.328;2023-03-12T05:32:05;8.60;99.90
70550;DHT22;58101;48.658;2.328;2023-03-12T05:34:32;8.60;99.90
70550;DHT22;58101;48.658;2.328;2023-03-12T05:36:57;8.60;99.90
70550;DHT22;58101;48.658;2.328;2023-03-12T05:39:24;8.80;99.90
70550;DHT22;58101;48.658;2.328;2023-03-12T05:41:51;8.70;99.90
70550;DHT22;58101;48.658;2.328;2023-03-12T05:44:22;8.70;99.90
70550;DHT22;58101;48.658;2.328;2023-03-12T05:46:48;8.70;99.90
70550;DHT22;58101;48.658;2.328;2023-03-12T05:49:13;8.80;99.90
70550;DHT22;58101;48.658;2.328;2023-03-12T05:51:39;8.70;99.90
70550;DHT22;58101;48.658;2.328;2023-03-12T05:54:04;8.80;99.90
70550;DHT22;58101;48.658;2.328;2023-03-12T05:56:30;8.80;99.90
70550;DHT22;58101;48.658;2.328;2023-03-12T05:58:56;8.80;99.90
70550;DHT22;58101;48.658;2.328;2023-03-12T06:01:25;8.80;99.90
70550;DHT22;58101;48.658;2.328;2023-03-12T06:03:51;8.90;99.90
70550;DHT22;58101;48.658;2.328;2023-03-12T06:06:17;8.90;99.90
70550;DHT22;58101;48.658;2.328;2023-03-12T06:08:44;8.90;99.90
70550;DHT22;58101;48.658;2.328;2023-03-12T06:11:10;9.00;99.90
70550;DHT22;58101;48.658;2.328;2023-03-12T06:13:36;9.00;99.90
70550;DHT22;58101;48.658;2.328;2023-03-12T06:16:03;9.00;99.90
70550;DHT22;58101;48.658;2.328;2023-03-12T06:18:30;8.90;99.90
70550;DHT22;58101;48.658;2.328;2023-03-12T06:21:07;9.00;99.90
70550;DHT22;58101;48.658;2.328;2023-03-12T06:23:33;9.00;99.90
70550;DHT22;58101;48.658;2.328;2023-03-12T06:25:58;8.90;99.90
70550;DHT22;58101;48.658;2.328;2023-03-12T06:28:24;8.90;99.90
70550;DHT22;58101;48.658;2.328;2023-03-12T06:30:52;9.00;99.90
70550;DHT22;58101;48.658;2.328;2023-03-12T06:33:18;9.00;99.90
70550;DHT22;58101;48.658;2.328;2023-03-12T06:35:43;9.00;99.90
70550;DHT22;58101;48.658;2.328;2023-03-12T06:38:10;9.00;99.90
70550;DHT22;58101;48.658;2.328;2023-03-12T06:40:35;9.10;99.90
70550;DHT22;58101;48.658;2.328;2023-03-12T06:43:07;9.00;99.90
70550;DHT22;58101;48.658;2.328;2023-03-12T06:45:36;9.10;99.90
70550;DHT22;58101;48.658;2.328;2023-03-12T06:48:02;9.10;99.90
70550;DHT22;58101;48.658;2.328;2023-03-12T06:50:28;9.10;99.90
70550;DHT22;58101;48.658;2.328;2023-03-12T06:52:54;9.10;99.90
70550;DHT22;58101;48.658;2.328;2023-03-12T06:55:19;9.10;99.90
70550;DHT22;58101;48.658;2.328;2023-03-12T06:57:45;9.20;99.90
70550;DHT22;58101;48.658;2.328;2023-03-12T07:00:11;9.10;99.90
70550;DHT22;58101;48.658;2.328;2023-03-12T07:02:37;9.10;99.90
70550;DHT22;58101;48.658;2.328;2023-03-12T07:05:02;9.20;99.90
70550;DHT22;58101;48.658;2.328;2023-03-12T07:07:28;9.20;99.90
70550;DHT22;58101;48.658;2.328;2023-03-12T07:09:54;9.30;99.90
70550;DHT22;58101;48.658;2.328;2023-03-12T07:12:19;9.20;99.90
70550;DHT22;58101;48.658;2.328;2023-03-12T07:14:45;9.20;99.90
70550;DHT22;58101;48.658;2.328;2023-03-12T07:17:10;9.40;99.90
70550;DHT22;58101;48.658;2.328;2023-03-12T07:19:36;9.40;99.90
70550;DHT22;58101;48.658;2.328;2023-03-12T07:22:02;9.30;99.90
70550;DHT22;58101;48.658;2.328;2023-03-12T07:24:27;9.40;99.90
70550;DHT22;58101;48.658;2.328;2023-03-12T07:26:53;9.40;99.90
70550;DHT22;58101;48.658;2.328;2023-03-12T07:29:19;9.40;99.90
70550;DHT22;58101;48.658;2.328;2023-03-12T07:31:44;9.50;99.90
70550;DHT22;58101;48.658;2.328;2023-03-12T07:34:10;9.60;99.90
70550;DHT22;58101;48.658;2.328;2023-03-12T07:36:35;9.70;99.90
70550;DHT22;58101;48.658;2.328;2023-03-12T07:39:01;9.80;99.90
70550;DHT22;58101;48.658;2.328;2023-03-12T07:41:27;9.90;99.90
70550;DHT22;58101;48.658;2.328;2023-03-12T07:43:52;10.00;99.90
70550;DHT22;58101;48.658;2.328;2023-03-12T07:46:18;10.10;99.90
70550;DHT22;58101;48.658;2.328;2023-03-12T07:48:43;10.30;99.90
70550;DHT22;58101;48.658;2.328;2023-03-12T07:51:09;10.30;99.90
70550;DHT22;58101;48.658;2.328;2023-03-12T07:53:35;10.40;99.90
70550;DHT22;58101;48.658;2.328;2023-03-12T07:56:00;10.70;99.90
70550;DHT22;58101;48.658;2.328;2023-03-12T07:58:26;10.80;99.90
70550;DHT22;58101;48.658;2.328;2023-03-12T08:00:54;10.90;99.90
70550;DHT22;58101;48.658;2.328;2023-03-12T08:03:20;11.00;99.90
70550;DHT22;58101;48.658;2.328;2023-03-12T08:05:55;11.20;99.90
70550;DHT22;58101;48.658;2.328;2023-03-12T08:08:20;11.00;99.90
70550;DHT22;58101;48.658;2.328;2023-03-12T08:10:46;11.20;99.90
70550;DHT22;58101;48.658;2.328;2023-03-12T08:13:12;11.30;99.90
70550;DHT22;58101;48.658;2.328;2023-03-12T08:15:37;11.40;99.90
70550;DHT22;58101;48.658;2.328;2023-03-12T08:18:03;11.60;99.90
70550;DHT22;58101;48.658;2.328;2023-03-12T08:20:29;11.90;99.90
70550;DHT22;58101;48.658;2.328;2023-03-12T08:22:54;12.40;99.90
70550;DHT22;58101;48.658;2.328;2023-03-12T08:25:20;13.10;99.90
70550;DHT22;58101;48.658;2.328;2023-03-12T08:27:48;14.20;99.90
70550;DHT22;58101;48.658;2.328;2023-03-12T08:33:49;15.30;99.90
70550;DHT22;58101;48.658;2.328;2023-03-12T08:36:15;15.50;99.90
70550;DHT22;58101;48.658;2.328;2023-03-12T08:38:40;15.40;99.90
70550;DHT22;58101;48.658;2.328;2023-03-12T08:41:18;15.80;98.10
70550;DHT22;58101;48.658;2.328;2023-03-12T08:43:44;16.10;97.10
70550;DHT22;58101;48.658;2.328;2023-03-12T08:46:36;16.90;91.20
70550;DHT22;58101;48.658;2.328;2023-03-12T08:49:01;17.20;80.20
70550;DHT22;58101;48.658;2.328;2023-03-12T08:51:27;17.60;78.30
70550;DHT22;58101;48.658;2.328;2023-03-12T08:53:53;17.80;79.30
70550;DHT22;58101;48.658;2.328;2023-03-12T08:56:36;17.90;69.70
70550;DHT22;58101;48.658;2.328;2023-03-12T08:59:24;17.10;76.60
70550;DHT22;58101;48.658;2.328;2023-03-12T09:01:50;17.00;78.10
70550;DHT22;58101;48.658;2.328;2023-03-12T09:07:09;18.90;72.70
70550;DHT22;58101;48.658;2.328;2023-03-12T09:12:53;18.40;68.00
70550;DHT22;58101;48.658;2.328;2023-03-12T09:15:19;18.50;68.50
70550;DHT22;58101;48.658;2.328;2023-03-12T09:17:44;18.40;65.10
70550;DHT22;58101;48.658;2.328;2023-03-12T09:20:12;18.50;64.00
70550;DHT22;58101;48.658;2.328;2023-03-12T09:22:41;19.20;62.80
70550;DHT22;58101;48.658;2.328;2023-03-12T09:25:07;19.60;60.50
70550;DHT22;58101;48.658;2.328;2023-03-12T09:27:38;18.80;61.20
70550;DHT22;58101;48.658;2.328;2023-03-12T09:30:06;18.50;64.30
70550;DHT22;58101;48.658;2.328;2023-03-12T09:32:32;18.20;63.60
70550;DHT22;58101;48.658;2.328;2023-03-12T09:34:57;17.80;65.60
70550;DHT22;58101;48.658;2.328;2023-03-12T09:37:24;17.30;68.00
70550;DHT22;58101;48.658;2.328;2023-03-12T09:39:50;16.70;75.00
70550;DHT22;58101;48.658;2.328;2023-03-12T09:42:39;16.50;89.90
70550;DHT22;58101;48.658;2.328;2023-03-12T09:45:07;16.00;92.00
70550;DHT22;58101;48.658;2.328;2023-03-12T09:47:51;16.00;97.30
70550;DHT22;58101;48.658;2.328;2023-03-12T09:50:21;16.50;85.30
70550;DHT22;58101;48.658;2.328;2023-03-12T09:55:21;16.40;81.70
70550;DHT22;58101;48.658;2.328;2023-03-12T09:57:48;15.50;87.50
70550;DHT22;58101;48.658;2.328;2023-03-12T10:00:23;15.30;98.40
70550;DHT22;58101;48.658;2.328;2023-03-12T10:05:55;14.60;99.90
70550;DHT22;58101;48.658;2.328;2023-03-12T10:08:46;14.20;99.90
70550;DHT22;58101;48.658;2.328;2023-03-12T10:22:32;14.70;99.90
70550;DHT22;58101;48.658;2.328;2023-03-12T10:25:36;14.80;99.90
70550;DHT22;58101;48.658;2.328;2023-03-12T10:28:11;15.00;99.90
70550;DHT22;58101;48.658;2.328;2023-03-12T10:30:41;14.90;98.40
70550;DHT22;58101;48.658;2.328;2023-03-12T10:33:12;14.50;99.90
70550;DHT22;58101;48.658;2.328;2023-03-12T10:35:39;14.40;99.90
70550;DHT22;58101;48.658;2.328;2023-03-12T10:38:21;14.10;99.90
70550;DHT22;58101;48.658;2.328;2023-03-12T10:40:51;14.20;99.90
70550;DHT22;58101;48.658;2.328;2023-03-12T10:43:16;14.20;99.90
70550;DHT22;58101;48.658;2.328;2023-03-12T10:46:01;14.10;99.90
70550;DHT22;58101;48.658;2.328;2023-03-12T10:48:33;14.00;99.90
70550;DHT22;58101;48.658;2.328;2023-03-12T10:51:04;13.90;99.90
70550;DHT22;58101;48.658;2.328;2023-03-12T10:53:36;14.10;99.90
70550;DHT22;58101;48.658;2.328;2023-03-12T10:56:11;14.30;99.90
70550;DHT22;58101;48.658;2.328;2023-03-12T10:58:46;14.40;99.30
70550;DHT22;58101;48.658;2.328;2023-03-12T11:01:21;14.30;98.20
70550;DHT22;58101;48.658;2.328;2023-03-12T11:03:48;14.00;99.90
70550;DHT22;58101;48.658;2.328;2023-03-12T11:06:27;14.00;99.90
70550;DHT22;58101;48.658;2.328;2023-03-12T11:09:14;14.00;99.90
70550;DHT22;58101;48.658;2.328;2023-03-12T11:11:41;13.80;99.90
70550;DHT22;58101;48.658;2.328;2023-03-12T11:14:23;13.70;99.90
70550;DHT22;58101;48.658;2.328;2023-03-12T11:16:51;13.40;99.90
70550;DHT22;58101;48.658;2.328;2023-03-12T11:19:32;13.30;99.90
70550;DHT22;58101;48.658;2.328;2023-03-12T11:22:04;13.20;99.90
70550;DHT22;58101;48.658;2.328;2023-03-12T11:24:30;13.20;99.90
70550;DHT22;58101;48.658;2.328;2023-03-12T11:29:49;13.30;99.90
70550;DHT22;58101;48.658;2.328;2023-03-12T11:32:35;13.50;99.90
70550;DHT22;58101;48.658;2.328;2023-03-12T11:35:05;13.50;99.90
70550;DHT22;58101;48.658;2.328;2023-03-12T11:38:02;13.50;99.90
70550;DHT22;58101;48.658;2.328;2023-03-12T11:43:41;13.30;99.90
70550;DHT22;58101;48.658;2.328;2023-03-12T11:46:21;13.30;99.90
70550;DHT22;58101;48.658;2.328;2023-03-12T11:54:24;13.70;99.90
70550;DHT22;58101;48.658;2.328;2023-03-12T11:57:09;14.30;99.90
70550;DHT22;58101;48.658;2.328;2023-03-12T12:08:30;16.30;70.10
70550;DHT22;58101;48.658;2.328;2023-03-12T12:22:07;15.30;84.10
70550;DHT22;58101;48.658;2.328;2023-03-12T12:27:37;15.00;91.50
70550;DHT22;58101;48.658;2.328;2023-03-12T12:33:11;14.40;96.70
70550;DHT22;58101;48.658;2.328;2023-03-12T12:35:41;14.30;99.90
70550;DHT22;58101;48.658;2.328;2023-03-12T12:38:23;14.30;99.00
70550;DHT22;58101;48.658;2.328;2023-03-12T12:41:24;14.10;99.90
70550;DHT22;58101;48.658;2.328;2023-03-12T12:43:56;14.00;99.90
70550;DHT22;58101;48.658;2.328;2023-03-12T12:46:34;14.00;99.90
70550;DHT22;58101;48.658;2.328;2023-03-12T12:49:23;13.90;99.90
70550;DHT22;58101;48.658;2.328;2023-03-12T12:51:57;14.00;99.90
70550;DHT22;58101;48.658;2.328;2023-03-12T12:59:39;15.30;93.20
70550;DHT22;58101;48.658;2.328;2023-03-12T13:02:27;15.40;83.60
70550;DHT22;58101;48.658;2.328;2023-03-12T13:04:59;14.90;75.50
70550;DHT22;58101;48.658;2.328;2023-03-12T13:09:55;14.50;89.20
70550;DHT22;58101;48.658;2.328;2023-03-12T13:14:58;14.50;96.00
70550;DHT22;58101;48.658;2.328;2023-03-12T13:20:19;14.70;94.40
70550;DHT22;58101;48.658;2.328;2023-03-12T13:25:52;14.50;89.00
70550;DHT22;58101;48.658;2.328;2023-03-12T13:28:28;14.40;92.10
70550;DHT22;58101;48.658;2.328;2023-03-12T13:33:48;14.30;86.40
70550;DHT22;58101;48.658;2.328;2023-03-12T13:41:36;14.70;90.30
70550;DHT22;58101;48.658;2.328;2023-03-12T13:44:22;14.80;83.30
70550;DHT22;58101;48.658;2.328;2023-03-12T13:47:15;14.70;90.40
70550;DHT22;58101;48.658;2.328;2023-03-12T13:50:12;14.50;87.70
70550;DHT22;58101;48.658;2.328;2023-03-12T13:52:47;14.40;97.90
70550;DHT22;58101;48.658;2.328;2023-03-12T13:55:25;14.30;99.90
70550;DHT22;58101;48.658;2.328;2023-03-12T13:58:13;14.30;99.90
70550;DHT22;58101;48.658;2.328;2023-03-12T14:00:55;14.40;99.90
70550;DHT22;58101;48.658;2.328;2023-03-12T14:03:32;14.40;98.50
70550;DHT22;58101;48.658;2.328;2023-03-12T14:06:12;14.50;97.40
70550;DHT22;58101;48.658;2.328;2023-03-12T14:09:19;14.60;94.10
70550;DHT22;58101;48.658;2.328;2023-03-12T14:17:59;14.40;90.60
70550;DHT22;58101;48.658;2.328;2023-03-12T14:20:29;14.30;91.50
70550;DHT22;58101;48.658;2.328;2023-03-12T14:23:01;14.20;93.80
70550;DHT22;58101;48.658;2.328;2023-03-12T14:25:38;14.10;94.20
70550;DHT22;58101;48.658;2.328;2023-03-12T14:31:16;14.10;97.00
70550;DHT22;58101;48.658;2.328;2023-03-12T14:36:25;13.80;98.60
70550;DHT22;58101;48.658;2.328;2023-03-12T14:38:57;13.90;99.90
70550;DHT22;58101;48.658;2.328;2023-03-12T14:41:30;13.90;96.80
70550;DHT22;58101;48.658;2.328;2023-03-12T14:44:24;13.90;97.00
70550;DHT22;58101;48.658;2.328;2023-03-12T14:47:01;13.90;95.10
70550;DHT22;58101;48.658;2.328;2023-03-12T14:53:32;14.10;93.40
70550;DHT22;58101;48.658;2.328;2023-03-12T14:55:59;14.20;93.40
70550;DHT22;58101;48.658;2.328;2023-03-12T14:58:25;14.20;94.10
70550;DHT22;58101;48.658;2.328;2023-03-12T15:01:01;14.10;98.00
70550;DHT22;58101;48.658;2.328;2023-03-12T15:03:28;14.10;96.20
70550;DHT22;58101;48.658;2.328;2023-03-12T15:05:55;14.20;95.00
70550;DHT22;58101;48.658;2.328;2023-03-12T15:08:21;14.20;96.40
70550;DHT22;58101;48.658;2.328;2023-03-12T15:10:59;14.30;95.40
70550;DHT22;58101;48.658;2.328;2023-03-12T15:13:26;14.20;95.20
70550;DHT22;58101;48.658;2.328;2023-03-12T15:15:53;14.20;99.60
70550;DHT22;58101;48.658;2.328;2023-03-12T15:18:27;14.30;99.30
70550;DHT22;58101;48.658;2.328;2023-03-12T15:20:55;14.40;98.80
70550;DHT22;58101;48.658;2.328;2023-03-12T15:23:23;14.40;97.40
70550;DHT22;58101;48.658;2.328;2023-03-12T15:31:25;14.30;99.90
70550;DHT22;58101;48.658;2.328;2023-03-12T15:34:04;14.30;99.90
70550;DHT22;58101;48.658;2.328;2023-03-12T15:36:32;14.10;99.90
70550;DHT22;58101;48.658;2.328;2023-03-12T15:44:53;14.10;99.90
70550;DHT22;58101;48.658;2.328;2023-03-12T15:47:25;13.90;99.90
70550;DHT22;58101;48.658;2.328;2023-03-12T15:52:28;13.90;99.90
70550;DHT22;58101;48.658;2.328;2023-03-12T16:00:41;13.70;99.90
70550;DHT22;58101;48.658;2.328;2023-03-12T16:03:19;13.70;99.90
70550;DHT22;58101;48.658;2.328;2023-03-12T16:05:45;13.70;99.90
70550;DHT22;58101;48.658;2.328;2023-03-12T16:08:18;13.60;99.90
70550;DHT22;58101;48.658;2.328;2023-03-12T16:10:48;13.60;99.90
70550;DHT22;58101;48.658;2.328;2023-03-12T16:13:19;13.60;99.90
70550;DHT22;58101;48.658;2.328;2023-03-12T16:15:45;13.60;99.90
70550;DHT22;58101;48.658;2.328;2023-03-12T16:18:13;13.60;99.90
70550;DHT22;58101;48.658;2.328;2023-03-12T16:20:39;13.50;99.90
70550;DHT22;58101;48.658;2.328;2023-03-12T16:23:05;13.50;99.90
70550;DHT22;58101;48.658;2.328;2023-03-12T16:25:30;13.50;99.90
70550;DHT22;58101;48.658;2.328;2023-03-12T16:27:59;13.50;99.90
70550;DHT22;58101;48.658;2.328;2023-03-12T16:30:31;13.50;99.90
70550;DHT22;58101;48.658;2.328;2023-03-12T16:32:58;13.60;99.90
70550;DHT22;58101;48.658;2.328;2023-03-12T16:35:25;13.50;99.90
70550;DHT22;58101;48.658;2.328;2023-03-12T16:37:58;13.50;99.90
70550;DHT22;58101;48.658;2.328;2023-03-12T16:40:26;13.50;99.90
70550;DHT22;58101;48.658;2.328;2023-03-12T16:42:53;13.50;99.90
70550;DHT22;58101;48.658;2.328;2023-03-12T16:45:22;13.40;99.90
70550;DHT22;58101;48.658;2.328;2023-03-12T16:47:53;13.50;99.90
70550;DHT22;58101;48.658;2.328;2023-03-12T16:50:22;13.40;99.90
70550;DHT22;58101;48.658;2.328;2023-03-12T16:52:48;13.40;99.90
70550;DHT22;58101;48.658;2.328;2023-03-12T16:55:21;13.40;99.90
70550;DHT22;58101;48.658;2.328;2023-03-12T16:57:59;13.40;99.90
70550;DHT22;58101;48.658;2.328;2023-03-12T17:00:28;13.40;99.90
70550;DHT22;58101;48.658;2.328;2023-03-12T17:02:55;13.40;99.90
70550;DHT22;58101;48.658;2.328;2023-03-12T17:05:25;13.40;99.90
70550;DHT22;58101;48.658;2.328;2023-03-12T17:07:50;13.40;99.90
70550;DHT22;58101;48.658;2.328;2023-03-12T17:10:16;13.30;99.90
70550;DHT22;58101;48.658;2.328;2023-03-12T17:12:42;13.30;99.90
70550;DHT22;58101;48.658;2.328;2023-03-12T17:15:25;13.30;99.90
70550;DHT22;58101;48.658;2.328;2023-03-12T17:17:51;13.20;99.90
70550;DHT22;58101;48.658;2.328;2023-03-12T17:20:19;13.20;99.90
70550;DHT22;58101;48.658;2.328;2023-03-12T17:22:45;13.20;99.90
70550;DHT22;58101;48.658;2.328;2023-03-12T17:25:23;13.20;99.90
70550;DHT22;58101;48.658;2.328;2023-03-12T17:27:49;13.10;99.90
70550;DHT22;58101;48.658;2.328;2023-03-12T17:30:15;13.10;99.90
70550;DHT22;58101;48.658;2.328;2023-03-12T17:32:41;13.10;99.90
70550;DHT22;58101;48.658;2.328;2023-03-12T17:35:07;13.10;99.90
70550;DHT22;58101;48.658;2.328;2023-03-12T17:37:33;13.10;99.90
70550;DHT22;58101;48.658;2.328;2023-03-12T17:39:59;13.00;99.90
70550;DHT22;58101;48.658;2.328;2023-03-12T17:42:33;13.00;99.90
70550;DHT22;58101;48.658;2.328;2023-03-12T17:44:59;12.90;99.90
70550;DHT22;58101;48.658;2.328;2023-03-12T17:47:26;12.90;99.90
70550;DHT22;58101;48.658;2.328;2023-03-12T17:49:52;12.90;99.90
70550;DHT22;58101;48.658;2.328;2023-03-12T17:52:17;12.80;99.90
70550;DHT22;58101;48.658;2.328;2023-03-12T17:54:43;12.80;99.90
70550;DHT22;58101;48.658;2.328;2023-03-12T17:57:11;12.80;99.90
70550;DHT22;58101;48.658;2.328;2023-03-12T17:59:37;12.70;99.90
70550;DHT22;58101;48.658;2.328;2023-03-12T18:02:03;12.70;99.90
70550;DHT22;58101;48.658;2.328;2023-03-12T18:04:29;12.70;99.90